Time;durP1;ratioP1;P1;durP2;ratioP2;P2;SDS_P1;SDS_P2;PMS_P1;PMS_P2;Temp;Humidity;BMP_temperature;BMP_pressure;BME280_temperature;BME280_humidity;BME280_pressure;Samples;Min_cycle;Max_cycle;Signal;HPM_P1;HPM_P2
2023/06/10 00:01:43;;;;;;;;;31.67;25.33;;;;;28.39;35.14;100616.69;5091716;27;45378;-58
2023/06/10 00:04:08;;;;;;;;;25.00;25.00;;;;;28.39;35.31;100620.28;5067765;28;45435;-58
2023/06/10 00:06:36;;;;;;;;;28.67;26.33;;;;;28.39;35.48;100619.44;5072904;28;45490;-58
2023/06/10 00:09:04;;;;;;;;;28.33;26.67;;;;;28.39;35.25;100611.22;5077380;28;45539;-58
2023/06/10 00:11:30;;;;;;;;;25.67;24.33;;;;;28.39;35.46;100616.69;5072704;27;45919;-58
2023/06/10 00:13:56;;;;;;;;;23.67;23.00;;;;;28.37;35.64;100616.91;5069117;28;45425;-58
2023/06/10 00:16:22;;;;;;;;;27.33;27.33;;;;;28.36;35.74;100619.84;5064817;27;64315;-58
2023/06/10 00:18:48;;;;;;;;;26.67;26.33;;;;;28.36;35.69;100625.31;5061451;27;61435;-58
2023/06/10 00:21:14;;;;;;;;;26.00;26.00;;;;;28.34;35.75;100627.38;5066479;28;45550;-58
2023/06/10 00:23:39;;;;;;;;;28.33;26.67;;;;;28.32;35.74;100630.31;5063479;28;45205;-58
2023/06/10 00:26:05;;;;;;;;;27.67;27.33;;;;;28.32;35.61;100629.50;5080028;27;62761;-58
2023/06/10 00:28:30;;;;;;;;;27.67;26.00;;;;;28.29;35.67;100635.34;5061249;28;45694;-58
2023/06/10 00:30:57;;;;;;;;;28.67;28.67;;;;;28.26;36.39;100627.53;5063285;28;61448;-58
2023/06/10 00:33:22;;;;;;;;;34.33;29.00;;;;;28.25;36.06;100620.38;5059653;27;45662;-58
2023/06/10 00:35:48;;;;;;;;;24.00;23.33;;;;;28.26;36.00;100619.34;5061175;28;46044;-58
2023/06/10 00:38:14;;;;;;;;;27.67;27.67;;;;;28.25;36.13;100626.66;5080849;27;45464;-58
2023/06/10 00:40:43;;;;;;;;;30.67;27.33;;;;;28.24;36.07;100627.75;5057350;28;47160;-58
2023/06/10 00:43:09;;;;;;;;;28.67;27.67;;;;;28.23;36.33;100629.59;5061661;28;45461;-58
2023/06/10 00:45:34;;;;;;;;;30.67;27.67;;;;;28.21;36.41;100626.25;5063607;27;45430;-58
2023/06/10 00:48:00;;;;;;;;;29.33;28.00;;;;;28.20;36.05;100629.19;5063293;28;45473;-58
2023/06/10 00:50:26;;;;;;;;;29.33;29.00;;;;;28.18;36.32;100642.19;5060929;27;45498;-59
2023/06/10 00:52:53;;;;;;;;;29.00;28.67;;;;;28.13;36.63;100645.50;5063296;28;45429;-58
2023/06/10 00:55:19;;;;;;;;;23.67;21.00;;;;;28.11;36.44;100639.41;5074074;27;45397;-58
2023/06/10 00:57:45;;;;;;;;;23.33;21.33;;;;;28.08;35.98;100650.72;5065546;28;53289;-58
2023/06/10 01:00:12;;;;;;;;;17.67;17.33;;;;;28.03;36.30;100643.09;5064522;28;45386;-58
2023/06/10 01:02:37;;;;;;;;;13.33;13.33;;;;;27.97;36.43;100645.75;5080612;27;45731;-60
2023/06/10 01:05:03;;;;;;;;;12.67;11.67;;;;;27.89;36.25;100638.53;5060392;27;51056;-58
2023/06/10 01:07:37;;;;;;;;;11.00;11.00;;;;;27.82;36.02;100640.34;5080239;27;45270;-58
2023/06/10 01:10:30;;;;;;;;;11.67;11.67;;;;;27.78;36.10;100644.50;5071072;28;45485;-58
2023/06/10 01:12:59;;;;;;;;;12.33;10.33;;;;;27.72;36.39;100646.97;5053695;28;46295;-58
2023/06/10 01:15:25;;;;;;;;;11.00;9.33;;;;;27.68;36.55;100645.66;5052841;28;45314;-58
2023/06/10 01:17:54;;;;;;;;;10.67;9.67;;;;;27.64;36.76;100646.22;5072482;28;45526;-58
2023/06/10 01:20:19;;;;;;;;;9.67;9.67;;;;;27.61;36.74;100652.09;5064860;28;45544;-58
2023/06/10 01:22:45;;;;;;;;;9.67;9.67;;;;;27.56;36.70;100653.53;5064816;27;66133;-58
2023/06/10 01:25:11;;;;;;;;;13.33;10.67;;;;;27.53;36.87;100648.44;5065532;28;45542;-58
2023/06/10 01:27:39;;;;;;;;;8.00;8.00;;;;;27.51;37.49;100646.94;5072135;28;45749;-58
2023/06/10 01:30:11;;;;;;;;;9.33;9.33;;;;;27.51;37.24;100647.78;5071900;28;46187;-57
2023/06/10 01:32:40;;;;;;;;;10.67;10.67;;;;;27.49;36.91;100641.66;5059372;28;45435;-58
2023/06/10 01:35:08;;;;;;;;;8.67;8.67;;;;;27.48;37.43;100637.25;5062000;28;45323;-58
2023/06/10 01:37:33;;;;;;;;;9.00;9.00;;;;;27.46;37.49;100644.78;5061013;28;45682;-58
2023/06/10 01:40:00;;;;;;;;;10.33;10.33;;;;;27.45;37.80;100651.28;5080927;27;69842;-58
2023/06/10 01:42:25;;;;;;;;;9.00;9.00;;;;;27.45;37.60;100650.44;5071783;28;46411;-58
2023/06/10 01:44:51;;;;;;;;;9.00;9.00;;;;;27.47;37.47;100648.34;5051586;28;45391;-59
2023/06/10 01:47:17;;;;;;;;;10.33;9.33;;;;;27.47;37.53;100651.94;5070908;28;45552;-58
2023/06/10 01:49:43;;;;;;;;;9.67;9.33;;;;;27.47;37.29;100654.66;5082007;27;47250;-58
2023/06/10 01:52:08;;;;;;;;;10.00;9.33;;;;;27.47;37.90;100649.22;5068316;28;67515;-58
2023/06/10 01:54:34;;;;;;;;;10.00;10.00;;;;;27.47;37.87;100660.13;5090592;27;45497;-58
2023/06/10 01:57:00;;;;;;;;;9.00;9.00;;;;;27.47;37.60;100654.66;5069857;27;45668;-58
2023/06/10 01:59:25;;;;;;;;;9.33;9.33;;;;;27.44;38.41;100660.50;5075205;27;46339;-58
2023/06/10 02:01:51;;;;;;;;;9.67;9.67;;;;;27.43;38.03;100668.88;5083983;27;62571;-58
2023/06/10 02:04:16;;;;;;;;;10.33;8.67;;;;;27.36;37.89;100668.78;5072484;28;61465;-58
2023/06/10 02:06:42;;;;;;;;;12.67;9.67;;;;;27.31;38.20;100666.63;5074328;28;45514;-59
2023/06/10 02:09:07;;;;;;;;;13.00;12.00;;;;;27.28;38.74;100668.91;5072871;27;45471;-58
2023/06/10 02:11:33;;;;;;;;;13.33;13.00;;;;;27.22;38.66;100668.63;5067327;27;65175;-57
2023/06/10 02:13:58;;;;;;;;;8.33;7.67;;;;;27.19;38.32;100668.97;5074319;27;45441;-58
2023/06/10 02:16:23;;;;;;;;;10.00;10.00;;;;;27.16;38.95;100672.09;5073477;27;65081;-58
2023/06/10 02:18:49;;;;;;;;;8.33;6.67;;;;;27.12;38.71;100668.06;5076690;27;45500;-57
2023/06/10 02:21:14;;;;;;;;;10.00;8.33;;;;;27.06;39.11;100669.66;5069705;27;71154;-58
2023/06/10 02:23:40;;;;;;;;;8.00;8.00;;;;;27.00;39.17;100658.63;5065679;28;46055;-58
2023/06/10 02:26:05;;;;;;;;;5.00;5.00;;;;;26.95;39.14;100661.06;5067240;27;45711;-58
2023/06/10 02:28:31;;;;;;;;;7.67;7.67;;;;;26.90;38.80;100656.19;5077500;28;50491;-58
2023/06/10 02:30:56;;;;;;;;;9.33;7.33;;;;;26.84;39.31;100660.53;5071484;28;45422;-58
2023/06/10 02:33:23;;;;;;;;;11.33;9.00;;;;;26.79;39.48;100660.25;5068540;27;45817;-57
2023/06/10 02:35:48;;;;;;;;;10.00;9.00;;;;;26.78;39.60;100669.47;5069220;28;45632;-58
2023/06/10 02:38:13;;;;;;;;;8.67;8.67;;;;;26.76;39.98;100659.78;5070922;28;65781;-58
2023/06/10 02:40:38;;;;;;;;;8.00;8.00;;;;;26.74;39.58;100668.16;5085933;27;65121;-58
2023/06/10 02:43:04;;;;;;;;;11.00;8.00;;;;;26.72;39.91;100662.00;5075395;27;45601;-58
2023/06/10 02:45:29;;;;;;;;;10.33;9.33;;;;;26.69;40.33;100665.94;5063625;27;45368;-58
2023/06/10 02:47:55;;;;;;;;;9.67;9.67;;;;;26.67;40.25;100661.69;5070420;27;72059;-58
2023/06/10 02:50:20;;;;;;;;;8.67;8.67;;;;;26.64;40.26;100673.81;5073123;28;45652;-58
2023/06/10 02:52:45;;;;;;;;;9.33;8.33;;;;;26.59;39.83;100676.25;5061755;28;63270;-58
2023/06/10 02:55:11;;;;;;;;;9.33;9.00;;;;;26.55;40.27;100673.03;5081372;27;45624;-57
2023/06/10 02:57:36;;;;;;;;;8.67;8.67;;;;;26.51;40.41;100671.72;5072227;27;65647;-58
2023/06/10 03:00:04;;;;;;;;;9.33;7.67;;;;;26.48;40.33;100671.25;5071243;28;70822;-57
2023/06/10 03:02:31;;;;;;;;;7.33;7.33;;;;;26.46;40.93;100674.16;5079608;27;45342;-57
2023/06/10 03:04:57;;;;;;;;;12.67;8.67;;;;;26.42;40.33;100665.50;5069112;28;45500;-57
2023/06/10 03:07:23;;;;;;;;;11.00;9.00;;;;;26.39;40.57;100670.50;5067851;28;45473;-58
2023/06/10 03:09:48;;;;;;;;;9.33;9.33;;;;;26.36;40.84;100668.09;5082669;27;45331;-58
2023/06/10 03:12:14;;;;;;;;;9.33;9.00;;;;;26.34;41.29;100676.47;5078028;27;45467;-57
2023/06/10 03:14:39;;;;;;;;;8.67;8.67;;;;;26.29;41.03;100670.72;5060713;27;53075;-58
2023/06/10 03:17:06;;;;;;;;;10.00;8.67;;;;;26.27;41.11;100677.38;5065390;28;46269;-57
2023/06/10 03:19:33;;;;;;;;;12.00;10.67;;;;;26.22;41.06;100675.22;5083305;27;45413;-57
2023/06/10 03:22:08;;;;;;;;;6.67;6.67;;;;;26.21;41.14;100678.97;5072121;28;45519;-57
2023/06/10 03:24:33;;;;;;;;;11.67;10.67;;;;;26.16;41.21;100678.69;5066019;28;45387;-58
2023/06/10 03:26:58;;;;;;;;;12.33;11.00;;;;;26.12;41.70;100688.25;5066954;27;70137;-56
2023/06/10 03:29:24;;;;;;;;;8.33;8.33;;;;;26.08;41.83;100685.88;5074711;27;58766;-56
2023/06/10 03:31:49;;;;;;;;;10.67;9.67;;;;;26.05;41.41;100679.97;5072518;28;45453;-56
2023/06/10 03:34:14;;;;;;;;;9.00;9.00;;;;;26.01;42.25;100684.88;5064299;28;70628;-56
2023/06/10 03:36:42;;;;;;;;;11.00;10.00;;;;;25.99;41.73;100681.47;5076730;27;52641;-57
2023/06/10 03:39:08;;;;;;;;;10.67;10.67;;;;;25.93;42.04;100680.34;5061895;28;45495;-57
2023/06/10 03:41:33;;;;;;;;;10.00;10.00;;;;;25.91;42.37;100681.53;5072986;28;45473;-57
2023/06/10 03:43:58;;;;;;;;;12.00;11.67;;;;;25.88;42.46;100680.03;5082312;27;56567;-56
2023/06/10 03:46:24;;;;;;;;;14.33;13.33;;;;;25.88;41.93;100684.66;5060826;28;46317;-56
2023/06/10 03:48:49;;;;;;;;;12.00;12.00;;;;;25.86;42.18;100683.97;5071207;27;45765;-57
2023/06/10 03:51:15;;;;;;;;;12.00;11.33;;;;;25.82;42.12;100683.47;5066856;28;45815;-57
2023/06/10 03:53:40;;;;;;;;;13.33;12.67;;;;;25.80;43.12;100679.22;5075709;28;45308;-56
2023/06/10 03:56:05;;;;;;;;;12.33;11.00;;;;;25.80;43.01;100684.69;5069877;27;61957;-56
2023/06/10 03:58:31;;;;;;;;;9.00;8.67;;;;;25.76;42.60;100685.03;5066784;28;45474;-56
2023/06/10 04:00:56;;;;;;;;;11.00;10.00;;;;;25.75;42.86;100682.50;5060046;27;60388;-56
2023/06/10 04:03:22;;;;;;;;;11.00;10.00;;;;;25.75;43.20;100686.06;5060257;28;70990;-57
2023/06/10 04:05:48;;;;;;;;;13.33;12.00;;;;;25.77;42.68;100688.59;5075119;27;46524;-56
2023/06/10 04:08:13;;;;;;;;;10.00;9.33;;;;;25.76;43.08;100692.34;5086381;27;45920;-57
2023/06/10 04:10:38;;;;;;;;;11.00;10.33;;;;;25.74;42.87;100697.97;5074591;27;45422;-56
2023/06/10 04:13:04;;;;;;;;;12.33;10.00;;;;;25.73;43.14;100695.44;5077654;27;59295;-57
2023/06/10 04:15:32;;;;;;;;;8.00;8.00;;;;;25.73;42.66;100690.84;5082476;27;57360;-58
2023/06/10 04:17:57;;;;;;;;;8.67;8.67;;;;;25.73;43.24;100696.28;5080650;27;45532;-57
2023/06/10 04:20:23;;;;;;;;;10.00;10.00;;;;;25.70;43.15;100698.53;5078448;27;45331;-57
2023/06/10 04:22:48;;;;;;;;;12.67;9.00;;;;;25.67;43.13;100697.00;5068385;27;45336;-57
2023/06/10 04:25:14;;;;;;;;;11.00;9.67;;;;;25.66;43.70;100699.91;5080288;27;46065;-57
2023/06/10 04:27:39;;;;;;;;;13.00;11.00;;;;;25.66;42.91;100705.38;5074911;28;45659;-57
2023/06/10 04:30:05;;;;;;;;;10.00;10.00;;;;;25.66;42.81;100699.91;5088552;27;45177;-57
2023/06/10 04:32:31;;;;;;;;;9.33;9.33;;;;;25.68;43.62;100711.47;5065263;28;46131;-57
2023/06/10 04:34:56;;;;;;;;;9.33;9.33;;;;;25.67;43.38;100710.63;5067188;27;57013;-57
2023/06/10 04:37:21;;;;;;;;;5.67;5.67;;;;;25.68;42.79;100717.78;5068191;28;45746;-60
2023/06/10 04:39:47;;;;;;;;;8.33;7.67;;;;;25.68;43.55;100725.09;5086214;27;45454;-60
2023/06/10 04:42:12;;;;;;;;;6.33;6.33;;;;;25.65;42.86;100723.56;5077926;27;65845;-61
2023/06/10 04:44:38;;;;;;;;;8.33;7.67;;;;;25.66;43.14;100727.16;5071036;28;57741;-61
2023/06/10 04:47:04;;;;;;;;;8.33;8.33;;;;;25.65;42.48;100725.44;5067737;27;45764;-60
2023/06/10 04:49:29;;;;;;;;;10.00;10.00;;;;;25.62;42.80;100725.78;5067531;28;45400;-60
2023/06/10 04:51:55;;;;;;;;;10.00;7.67;;;;;25.65;43.44;100728.19;5070554;28;45517;-60
2023/06/10 04:54:20;;;;;;;;;7.00;6.67;;;;;25.66;42.65;100730.72;5068408;27;65337;-60
2023/06/10 04:56:46;;;;;;;;;7.00;5.67;;;;;25.68;42.89;100735.97;5068193;28;45451;-60
2023/06/10 04:59:11;;;;;;;;;3.67;3.67;;;;;25.70;42.85;100731.22;5060924;28;45414;-60
2023/06/10 05:01:37;;;;;;;;;6.33;6.33;;;;;25.69;42.79;100729.50;5068693;28;45330;-60
2023/06/10 05:04:04;;;;;;;;;6.00;6.00;;;;;25.70;43.08;100731.22;5068662;27;53391;-60
2023/06/10 05:06:29;;;;;;;;;10.00;6.67;;;;;25.72;42.87;100740.91;5070289;27;45419;-61
2023/06/10 05:08:54;;;;;;;;;9.00;8.67;;;;;25.78;42.78;100739.34;5078410;27;45358;-61
2023/06/10 05:11:20;;;;;;;;;12.00;7.33;;;;;25.82;42.31;100743.38;5082243;27;58338;-61
2023/06/10 05:13:45;;;;;;;;;7.00;7.00;;;;;25.83;43.17;100742.38;5074895;27;68493;-61
2023/06/10 05:16:10;;;;;;;;;11.67;10.00;;;;;25.85;42.62;100742.19;5065653;27;45483;-61
2023/06/10 05:18:36;;;;;;;;;9.00;8.00;;;;;25.85;43.30;100742.19;5084092;27;45915;-57
2023/06/10 05:21:02;;;;;;;;;6.33;6.00;;;;;25.88;42.98;100736.41;5062516;27;45583;-57
2023/06/10 05:23:27;;;;;;;;;7.67;7.00;;;;;25.93;43.46;100734.81;5094025;27;46092;-57
2023/06/10 05:25:53;;;;;;;;;8.67;8.67;;;;;26.01;42.78;100736.66;5063733;28;68959;-57
2023/06/10 05:28:18;;;;;;;;;10.33;10.00;;;;;26.12;42.42;100743.59;5069820;27;61554;-57
2023/06/10 05:30:43;;;;;;;;;13.67;10.67;;;;;26.14;42.50;100735.22;5069987;28;45480;-57
2023/06/10 05:33:09;;;;;;;;;10.00;8.67;;;;;26.19;42.93;100736.41;5071193;28;73482;-57
2023/06/10 05:35:34;;;;;;;;;9.00;9.00;;;;;26.27;42.84;100745.53;5073311;27;45468;-57
2023/06/10 05:37:59;;;;;;;;;10.33;9.00;;;;;26.32;42.62;100746.72;5066674;27;45453;-57
2023/06/10 05:40:25;;;;;;;;;10.00;10.00;;;;;26.42;42.84;100750.00;5074523;27;55160;-57
2023/06/10 05:42:50;;;;;;;;;5.33;5.33;;;;;26.53;42.94;100754.19;5061647;28;45356;-57
2023/06/10 05:45:16;;;;;;;;;9.00;8.67;;;;;26.73;41.86;100751.00;5065818;27;45470;-57
2023/06/10 05:47:41;;;;;;;;;10.67;10.67;;;;;26.89;41.95;100744.53;5072577;27;45357;-57
2023/06/10 05:50:08;;;;;;;;;7.00;7.00;;;;;26.97;41.86;100751.78;5067205;28;45706;-57
2023/06/10 05:52:34;;;;;;;;;11.00;7.00;;;;;27.01;41.73;100747.66;5070175;27;46523;-58
2023/06/10 05:54:59;;;;;;;;;8.00;8.00;;;;;27.04;41.35;100755.47;5089394;27;45564;-58
2023/06/10 05:57:25;;;;;;;;;9.00;9.00;;;;;27.09;41.39;100747.56;5071043;28;66919;-58
2023/06/10 05:59:51;;;;;;;;;8.67;7.00;;;;;27.15;41.61;100754.16;5062137;28;45653;-58
2023/06/10 06:02:16;;;;;;;;;10.33;9.00;;;;;27.18;41.46;100756.50;5069198;28;45476;-58
2023/06/10 06:04:42;;;;;;;;;10.33;10.33;;;;;27.21;41.12;100754.25;5077309;27;57759;-58
2023/06/10 06:07:07;;;;;;;;;11.67;9.00;;;;;27.28;41.38;100756.25;5082413;27;45464;-58
2023/06/10 06:09:32;;;;;;;;;6.67;6.67;;;;;27.32;41.03;100758.41;5064612;27;66206;-62
2023/06/10 06:11:58;;;;;;;;;8.33;8.33;;;;;27.35;40.97;100757.19;5058055;28;47466;-61
2023/06/10 06:14:23;;;;;;;;;7.33;6.33;;;;;27.37;40.84;100763.31;5067069;28;55268;-58
2023/06/10 06:16:48;;;;;;;;;9.67;9.67;;;;;27.42;41.13;100763.63;5070412;28;45652;-61
2023/06/10 06:19:14;;;;;;;;;7.67;7.00;;;;;27.46;40.62;100770.41;5066397;28;55174;-62
2023/06/10 06:21:39;;;;;;;;;9.00;9.00;;;;;27.48;40.50;100762.88;5091916;27;46292;-62
2023/06/10 06:24:05;;;;;;;;;9.67;8.00;;;;;27.58;40.78;100762.56;5070411;27;45294;-62
2023/06/10 06:26:30;;;;;;;;;9.00;8.67;;;;;27.64;40.39;100771.88;5066407;28;45556;-54
2023/06/10 06:28:55;;;;;;;;;10.00;8.33;;;;;27.73;40.80;100763.41;5068185;28;45476;-55
2023/06/10 06:31:21;;;;;;;;;8.67;7.00;;;;;27.85;40.50;100774.69;5066277;27;45389;-55
2023/06/10 06:33:46;;;;;;;;;10.33;8.67;;;;;28.07;40.28;100769.31;5072071;27;55318;-54
2023/06/10 06:36:11;;;;;;;;;8.67;8.33;;;;;28.69;40.23;100772.47;5071249;28;59608;-55
2023/06/10 06:38:37;;;;;;;;;13.33;10.00;;;;;29.84;39.21;100769.41;5060797;27;61449;-56
2023/06/10 06:41:04;;;;;;;;;7.33;7.33;;;;;31.14;36.98;100769.22;5068325;27;64135;-55
2023/06/10 06:43:32;;;;;;;;;6.00;6.00;;;;;32.31;35.65;100773.03;5072131;27;45335;-55
2023/06/10 06:45:58;;;;;;;;;8.67;6.00;;;;;33.40;34.54;100774.66;5066288;28;45483;-55
2023/06/10 06:48:23;;;;;;;;;7.00;7.00;;;;;34.37;33.12;100770.28;5070617;28;45491;-56
2023/06/10 06:50:49;;;;;;;;;9.67;7.67;;;;;35.15;31.86;100778.53;5066361;27;46004;-56
2023/06/10 06:53:14;;;;;;;;;13.67;12.67;;;;;35.75;31.26;100769.91;5067442;27;45780;-56
2023/06/10 06:55:40;;;;;;;;;7.67;6.67;;;;;36.32;30.16;100779.28;5069409;28;45393;-56
2023/06/10 06:58:05;;;;;;;;;3.33;2.67;;;;;36.79;29.47;100788.44;5064537;28;60507;-55
2023/06/10 07:00:31;;;;;;;;;7.00;6.33;;;;;37.14;28.55;100790.94;5068662;28;67622;-56
2023/06/10 07:02:56;;;;;;;;;6.00;6.00;;;;;37.39;27.97;100793.28;5080127;27;45523;-56
2023/06/10 07:05:22;;;;;;;;;9.00;7.67;;;;;37.86;27.88;100793.88;5071571;27;47007;-56
2023/06/10 07:07:48;;;;;;;;;8.00;7.00;;;;;38.17;27.37;100786.69;5065755;27;45661;-56
2023/06/10 07:10:14;;;;;;;;;6.67;6.33;;;;;38.35;27.16;100793.84;5075286;28;47105;-56
2023/06/10 07:12:40;;;;;;;;;5.00;5.00;;;;;38.00;26.83;100791.53;5078507;28;45618;-56
2023/06/10 07:15:06;;;;;;;;;6.00;6.00;;;;;37.34;27.29;100797.88;5076033;27;55293;-57
2023/06/10 07:17:31;;;;;;;;;8.00;7.00;;;;;37.72;27.18;100796.19;5073519;28;45834;-56
2023/06/10 07:19:59;;;;;;;;;6.33;5.67;;;;;38.24;26.77;100789.28;5067632;27;61903;-56
2023/06/10 07:22:24;;;;;;;;;6.00;6.00;;;;;38.56;26.50;100785.72;5067148;27;47041;-55
2023/06/10 07:24:51;;;;;;;;;7.33;7.00;;;;;38.84;26.37;100786.50;5072941;27;45563;-58
2023/06/10 07:27:17;;;;;;;;;7.00;7.00;;;;;38.74;26.02;100781.72;5093214;27;45827;-54
2023/06/10 07:29:42;;;;;;;;;5.33;5.00;;;;;38.68;25.74;100789.16;5076122;27;70306;-54
2023/06/10 07:32:08;;;;;;;;;5.67;5.67;;;;;39.18;25.14;100805.69;5079109;27;46935;-54
2023/06/10 07:34:33;;;;;;;;;6.67;6.67;;;;;39.86;24.44;100802.13;5074585;28;45678;-55
2023/06/10 07:36:58;;;;;;;;;10.33;5.33;;;;;40.17;23.58;100796.69;5065792;27;45491;-55
2023/06/10 07:39:24;;;;;;;;;5.67;4.00;;;;;40.53;24.25;100802.28;5060054;28;51909;-54
2023/06/10 07:41:49;;;;;;;;;6.33;6.33;;;;;41.21;22.84;100803.91;5065462;28;45367;-55
2023/06/10 07:44:15;;;;;;;;;4.33;4.33;;;;;41.50;22.38;100811.69;5050868;28;45328;-54
2023/06/10 07:46:40;;;;;;;;;7.33;7.33;;;;;41.79;22.40;100813.78;5071195;28;45444;-55
2023/06/10 07:49:06;;;;;;;;;5.00;4.67;;;;;42.36;21.82;100808.75;5084026;27;46811;-54
2023/06/10 07:51:31;;;;;;;;;5.67;5.67;;;;;43.03;21.45;100813.75;5075382;27;67208;-54
2023/06/10 07:53:56;;;;;;;;;5.50;5.50;;;;;43.57;21.08;100809.00;5071829;27;45560;-55
2023/06/10 07:56:22;;;;;;;;;6.25;5.25;;;;;43.99;20.78;100816.84;5066992;28;45581;-54
2023/06/10 07:58:48;;;;;;;;;8.00;6.67;;;;;44.32;20.54;100814.13;5076379;27;45941;-54
2023/06/10 08:01:13;;;;;;;;;7.67;6.00;;;;;44.77;19.42;100814.53;5067409;27;45388;-54
2023/06/10 08:03:38;;;;;;;;;7.33;5.33;;;;;45.30;19.79;100818.06;5069476;28;65941;-56
2023/06/10 08:06:05;;;;;;;;;5.00;5.00;;;;;45.76;19.14;100825.53;5057127;28;45300;-57
2023/06/10 08:08:30;;;;;;;;;6.00;6.00;;;;;46.15;18.94;100829.72;5063994;28;45479;-59
2023/06/10 08:10:56;;;;;;;;;7.33;6.67;;;;;46.68;18.22;100827.38;5063640;27;45377;-59
2023/06/10 08:13:21;;;;;;;;;3.67;3.67;;;;;47.11;17.63;100823.13;5076992;28;45759;-57
2023/06/10 08:15:50;;;;;;;;;6.33;5.00;;;;;47.44;17.03;100826.44;5061061;28;45438;-59
2023/06/10 08:18:15;;;;;;;;;7.00;6.00;;;;;48.08;17.00;100830.72;5070918;27;46775;-59
2023/06/10 08:20:40;;;;;;;;;7.33;6.00;;;;;48.80;16.86;100827.53;5066529;28;57533;-59
2023/06/10 08:23:06;;;;;;;;;7.67;7.67;;;;;48.99;15.26;100832.81;5069621;27;67236;-57
2023/06/10 08:25:31;;;;;;;;;7.67;5.33;;;;;48.83;15.80;100833.31;5070979;28;46814;-59
2023/06/10 08:27:57;;;;;;;;;7.00;5.33;;;;;49.05;15.91;100839.94;5076093;27;52504;-58
2023/06/10 08:30:22;;;;;;;;;9.33;6.67;;;;;49.06;15.57;100835.09;5071111;27;45329;-59
2023/06/10 08:32:48;;;;;;;;;6.67;6.67;;;;;49.04;14.98;100840.25;5070919;28;45398;-59
2023/06/10 08:35:13;;;;;;;;;5.33;5.33;;;;;49.27;15.53;100838.88;5068896;28;65449;-59
2023/06/10 08:37:39;;;;;;;;;5.67;5.67;;;;;49.76;14.93;100840.44;5075761;28;46457;-58
2023/06/10 08:40:05;;;;;;;;;7.67;6.00;;;;;49.74;14.15;100837.97;5068002;27;45742;-58
2023/06/10 08:42:48;;;;;;;;;5.67;5.00;;;;;49.63;15.01;100842.34;5075741;28;45397;-58
2023/06/10 08:45:17;;;;;;;;;6.33;5.00;;;;;49.70;14.68;100839.78;5068368;27;45648;-58
2023/06/10 08:47:44;;;;;;;;;8.67;7.00;;;;;49.38;14.45;100833.66;5068241;28;45676;-58
2023/06/10 08:50:10;;;;;;;;;6.67;6.33;;;;;49.62;14.13;100832.19;5064440;28;45553;-58
2023/06/10 08:52:37;;;;;;;;;8.00;8.00;;;;;49.88;14.02;100831.19;5075345;28;45628;-58
2023/06/10 08:55:12;;;;;;;;;7.67;7.67;;;;;50.44;14.33;100836.59;5070737;27;45373;-58
2023/06/10 08:57:37;;;;;;;;;6.00;6.00;;;;;50.93;13.37;100847.25;5072055;28;47745;-58
2023/06/10 09:00:05;;;;;;;;;5.67;5.67;;;;;50.90;13.02;100845.09;5065407;28;45468;-58
2023/06/10 09:02:31;;;;;;;;;5.67;5.67;;;;;50.97;13.13;100849.00;5068093;28;45236;-58
2023/06/10 09:04:57;;;;;;;;;9.00;8.33;;;;;51.22;13.23;100840.56;5058645;28;45552;-58
2023/06/10 09:07:23;;;;;;;;;7.50;7.50;;;;;51.44;13.28;100846.97;5063322;28;46062;-58
2023/06/10 09:09:48;;;;;;;;;6.33;6.33;;;;;51.89;13.36;100839.47;5063703;28;45409;-58
2023/06/10 09:12:14;;;;;;;;;5.33;5.33;;;;;52.30;12.26;100834.63;5061981;27;45579;-59
2023/06/10 09:14:40;;;;;;;;;9.00;7.50;;;;;52.34;12.78;100838.38;5067037;27;45635;-58
2023/06/10 09:17:06;;;;;;;;;6.00;6.00;;;;;52.75;12.57;100838.28;5070961;28;45512;-58
2023/06/10 09:19:32;;;;;;;;;5.33;5.33;;;;;52.97;12.00;100834.03;5068326;27;45405;-58
2023/06/10 09:21:58;;;;;;;;;5.33;5.33;;;;;53.04;12.26;100839.06;5067515;27;47310;-59
2023/06/10 09:24:24;;;;;;;;;5.00;5.00;;;;;53.05;11.61;100846.41;5068012;28;45448;-58
2023/06/10 09:26:50;;;;;;;;;5.67;5.00;;;;;53.00;11.73;100838.16;5079596;27;45975;-60
2023/06/10 09:29:16;;;;;;;;;5.33;5.33;;;;;53.04;12.19;100839.91;5059426;27;47265;-60
2023/06/10 09:31:43;;;;;;;;;7.33;5.33;;;;;53.03;12.00;100843.94;5063085;28;45441;-60
2023/06/10 09:34:14;;;;;;;;;8.00;7.00;;;;;52.99;11.93;100834.50;5066530;28;45884;-58
2023/06/10 09:36:40;;;;;;;;;6.00;6.00;;;;;52.87;11.57;100835.41;5068459;28;45578;-58
2023/06/10 09:39:15;;;;;;;;;5.00;5.00;;;;;53.04;11.67;100844.72;5067562;27;45541;-58
2023/06/10 09:41:41;;;;;;;;;4.00;4.00;;;;;53.24;11.89;100842.84;5067631;28;45534;-59
2023/06/10 09:44:17;;;;;;;;;5.00;5.00;;;;;53.90;11.15;100837.47;5073414;27;45489;-60
2023/06/10 09:46:45;;;;;;;;;7.00;6.67;;;;;53.95;11.04;100844.91;5071504;27;46219;-60
2023/06/10 09:49:10;;;;;;;;;6.33;6.00;;;;;54.32;10.30;100835.91;5076577;28;45416;-60
2023/06/10 09:51:36;;;;;;;;;6.33;5.00;;;;;54.76;10.34;100840.44;5094191;27;45362;-60
2023/06/10 09:54:04;;;;;;;;;6.33;4.67;;;;;55.10;10.13;100838.66;5077606;27;45559;-60
2023/06/10 09:56:34;;;;;;;;;7.33;5.67;;;;;55.32;10.21;100842.66;5072329;27;45737;-60
2023/06/10 09:59:00;;;;;;;;;6.00;4.33;;;;;55.82;9.91;100851.16;5092272;27;45411;-60
2023/06/10 10:01:25;;;;;;;;;6.00;5.00;;;;;56.06;10.04;100839.66;5077016;27;45795;-60
2023/06/10 10:03:51;;;;;;;;;7.00;5.33;;;;;55.93;10.14;100839.06;5076242;28;65814;-60
2023/06/10 10:06:18;;;;;;;;;5.00;4.33;;;;;56.11;9.07;100845.81;5063135;28;47137;-60
2023/06/10 10:08:45;;;;;;;;;7.00;5.33;;;;;56.37;9.48;100846.97;5077617;27;45639;-61
2023/06/10 10:11:12;;;;;;;;;5.67;5.67;;;;;56.56;9.69;100836.53;5059269;28;45340;-60
2023/06/10 10:13:37;;;;;;;;;5.67;5.67;;;;;56.12;9.64;100846.63;5070216;27;45954;-59
2023/06/10 10:16:11;;;;;;;;;5.67;5.67;;;;;55.75;9.90;100845.34;5055467;28;45564;-59
2023/06/10 10:18:39;;;;;;;;;6.33;5.00;;;;;55.15;10.10;100835.44;5061306;27;45367;-59
2023/06/10 10:21:07;;;;;;;;;4.00;4.00;;;;;54.32;9.33;100825.38;5057217;27;45501;-59
2023/06/10 10:23:40;;;;;;;;;5.33;5.33;;;;;54.16;9.70;100839.72;5050760;28;45601;-59
2023/06/10 10:26:09;;;;;;;;;5.67;5.00;;;;;54.38;9.57;100843.81;5083967;27;46409;-59
2023/06/10 10:28:42;;;;;;;;;8.33;5.00;;;;;54.51;9.89;100838.75;5066459;27;45546;-59
2023/06/10 10:31:12;;;;;;;;;6.00;6.00;;;;;54.90;9.88;100840.72;5069041;27;45540;-59
2023/06/10 10:33:57;;;;;;;;;4.67;4.67;;;;;54.92;8.47;100835.47;5078381;27;45584;-60
2023/06/10 10:36:23;;;;;;;;;6.67;4.67;;;;;54.77;9.40;100833.56;5058665;28;45649;-59
2023/06/10 10:38:51;;;;;;;;;7.33;7.33;;;;;54.58;9.27;100838.09;5060102;28;45397;-59
2023/06/10 10:41:18;;;;;;;;;4.67;4.67;;;;;55.03;9.54;100839.28;5066233;27;45453;-59
2023/06/10 10:43:44;;;;;;;;;5.33;5.33;;;;;55.22;8.36;100836.78;5057039;28;45822;-59
2023/06/10 10:46:16;;;;;;;;;6.00;6.00;;;;;55.01;9.04;100818.94;5060324;28;47548;-60
2023/06/10 10:48:42;;;;;;;;;7.33;7.33;;;;;54.72;9.42;100823.28;5054643;28;46061;-59
2023/06/10 10:51:08;;;;;;;;;5.00;5.00;;;;;54.63;8.32;100820.72;5059053;28;44867;-59
2023/06/10 10:53:33;;;;;;;;;8.00;6.67;;;;;54.17;8.99;100809.25;5063522;28;45386;-59
2023/06/10 10:55:59;;;;;;;;;5.67;5.67;;;;;53.50;9.05;100821.53;5066015;28;45414;-60
2023/06/10 10:58:25;;;;;;;;;6.33;6.33;;;;;53.67;9.35;100826.00;5069013;28;45525;-59
2023/06/10 11:00:51;;;;;;;;;7.33;7.33;;;;;54.01;9.33;100818.66;5068991;28;45420;-59
2023/06/10 11:03:17;;;;;;;;;5.33;5.33;;;;;54.06;9.65;100818.34;5083751;27;62760;-60
2023/06/10 11:05:47;;;;;;;;;8.00;7.00;;;;;54.18;8.52;100819.41;5082214;27;45987;-59
2023/06/10 11:08:13;;;;;;;;;7.33;7.33;;;;;54.66;9.00;100822.78;5066833;28;45394;-60
2023/06/10 11:10:40;;;;;;;;;7.33;6.00;;;;;55.00;8.94;100822.19;5067789;28;45361;-59
2023/06/10 11:13:26;;;;;;;;;6.67;6.67;;;;;55.26;8.45;100817.72;5070367;28;45612;-60
2023/06/10 11:15:52;;;;;;;;;5.67;5.67;;;;;55.55;8.57;100824.69;5062950;28;45441;-59
2023/06/10 11:18:24;;;;;;;;;8.00;6.33;;;;;55.31;8.77;100821.06;5062097;28;45453;-59